sensor_id;sensor_type;location;lat;lon;timestamp;pressure;altitude;pressure_sealevel;temperature;humidity
53041;BME280;39326;42.650;23.248;2023-04-27T00:01:56;92267.03;;;5.83;55.97
53041;BME280;39326;42.650;23.248;2023-04-27T00:04:21;92261.81;;;5.90;55.85
53041;BME280;39326;42.650;23.248;2023-04-27T00:06:47;92262.53;;;5.87;55.64
53041;BME280;39326;42.650;23.248;2023-04-27T00:09:12;92267.06;;;5.86;55.94
53041;BME280;39326;42.650;23.248;2023-04-27T00:11:37;92276.88;;;5.82;56.56
53041;BME280;39326;42.650;23.248;2023-04-27T00:14:03;92277.41;;;5.95;56.26
53041;BME280;39326;42.650;23.248;2023-04-27T00:16:28;92272.09;;;5.95;56.00
53041;BME280;39326;42.650;23.248;2023-04-27T00:18:54;92281.78;;;5.84;55.71
53041;BME280;39326;42.650;23.248;2023-04-27T00:21:20;92272.47;;;5.63;55.41
53041;BME280;39326;42.650;23.248;2023-04-27T00:23:45;92278.16;;;5.65;56.04
53041;BME280;39326;42.650;23.248;2023-04-27T00:26:11;92272.94;;;5.72;55.11
53041;BME280;39326;42.650;23.248;2023-04-27T00:28:36;92277.94;;;5.77;55.57
53041;BME280;39326;42.650;23.248;2023-04-27T00:31:01;92268.16;;;5.82;55.14
53041;BME280;39326;42.650;23.248;2023-04-27T00:33:28;92274.75;;;5.65;56.54
53041;BME280;39326;42.650;23.248;2023-04-27T00:35:54;92270.81;;;5.55;55.98
53041;BME280;39326;42.650;23.248;2023-04-27T00:38:19;92268.72;;;5.68;56.12
53041;BME280;39326;42.650;23.248;2023-04-27T00:40:45;92269.66;;;5.53;56.58
53041;BME280;39326;42.650;23.248;2023-04-27T00:43:10;92270.88;;;5.59;56.11
53041;BME280;39326;42.650;23.248;2023-04-27T00:45:40;92273.81;;;5.50;56.50
53041;BME280;39326;42.650;23.248;2023-04-27T00:48:10;92269.78;;;5.33;56.57
53041;BME280;39326;42.650;23.248;2023-04-27T00:50:36;92264.13;;;5.35;56.33
53041;BME280;39326;42.650;23.248;2023-04-27T00:53:04;92266.78;;;5.35;56.65
53041;BME280;39326;42.650;23.248;2023-04-27T00:55:30;92271.59;;;5.29;56.74
53041;BME280;39326;42.650;23.248;2023-04-27T00:57:55;92267.91;;;5.34;55.86
53041;BME280;39326;42.650;23.248;2023-04-27T01:00:21;92263.25;;;5.01;57.84
53041;BME280;39326;42.650;23.248;2023-04-27T01:02:46;92272.44;;;5.10;57.26
53041;BME280;39326;42.650;23.248;2023-04-27T01:05:13;92272.97;;;4.93;58.15
53041;BME280;39326;42.650;23.248;2023-04-27T01:07:39;92277.06;;;4.90;58.60
53041;BME280;39326;42.650;23.248;2023-04-27T01:10:06;92268.94;;;5.03;57.71
53041;BME280;39326;42.650;23.248;2023-04-27T01:12:32;92281.97;;;4.92;57.08
53041;BME280;39326;42.650;23.248;2023-04-27T01:14:57;92280.41;;;4.87;57.82
53041;BME280;39326;42.650;23.248;2023-04-27T01:17:23;92279.88;;;5.01;56.99
53041;BME280;39326;42.650;23.248;2023-04-27T01:19:48;92268.13;;;4.99;56.78
53041;BME280;39326;42.650;23.248;2023-04-27T01:22:16;92278.00;;;5.02;56.61
53041;BME280;39326;42.650;23.248;2023-04-27T01:24:41;92283.28;;;4.79;57.56
53041;BME280;39326;42.650;23.248;2023-04-27T01:27:07;92295.69;;;4.75;57.72
53041;BME280;39326;42.650;23.248;2023-04-27T01:29:32;92290.44;;;4.78;57.94
53041;BME280;39326;42.650;23.248;2023-04-27T01:31:58;92286.00;;;4.82;57.35
53041;BME280;39326;42.650;23.248;2023-04-27T01:34:23;92290.50;;;4.82;57.45
53041;BME280;39326;42.650;23.248;2023-04-27T01:36:49;92288.53;;;4.75;58.14
53041;BME280;39326;42.650;23.248;2023-04-27T01:39:14;92298.38;;;4.78;58.09
53041;BME280;39326;42.650;23.248;2023-04-27T01:41:40;92300.53;;;4.73;57.90
53041;BME280;39326;42.650;23.248;2023-04-27T01:44:06;92299.72;;;4.68;57.56
53041;BME280;39326;42.650;23.248;2023-04-27T01:46:31;92294.69;;;4.83;57.54
53041;BME280;39326;42.650;23.248;2023-04-27T01:48:56;92297.25;;;4.79;57.21
53041;BME280;39326;42.650;23.248;2023-04-27T01:51:22;92303.41;;;4.64;57.11
53041;BME280;39326;42.650;23.248;2023-04-27T01:53:48;92294.31;;;4.84;56.39
53041;BME280;39326;42.650;23.248;2023-04-27T01:56:13;92292.56;;;4.69;57.18
53041;BME280;39326;42.650;23.248;2023-04-27T01:58:39;92295.13;;;4.65;57.85
53041;BME280;39326;42.650;23.248;2023-04-27T02:01:04;92298.59;;;4.69;57.53
53041;BME280;39326;42.650;23.248;2023-04-27T02:03:29;92296.91;;;4.81;57.39
53041;BME280;39326;42.650;23.248;2023-04-27T02:05:55;92295.06;;;4.85;57.60
53041;BME280;39326;42.650;23.248;2023-04-27T02:08:20;92299.19;;;4.82;57.50
53041;BME280;39326;42.650;23.248;2023-04-27T02:10:46;92298.56;;;4.89;57.10
53041;BME280;39326;42.650;23.248;2023-04-27T02:13:11;92295.06;;;4.85;57.27
53041;BME280;39326;42.650;23.248;2023-04-27T02:15:37;92297.31;;;4.83;57.53
53041;BME280;39326;42.650;23.248;2023-04-27T02:18:02;92291.00;;;4.87;57.51
53041;BME280;39326;42.650;23.248;2023-04-27T02:20:31;92298.44;;;4.82;56.90
53041;BME280;39326;42.650;23.248;2023-04-27T02:22:57;92304.59;;;4.89;56.71
53041;BME280;39326;42.650;23.248;2023-04-27T02:25:22;92295.03;;;4.81;56.31
53041;BME280;39326;42.650;23.248;2023-04-27T02:27:48;92298.19;;;4.90;56.42
53041;BME280;39326;42.650;23.248;2023-04-27T02:30:13;92303.59;;;4.98;56.08
53041;BME280;39326;42.650;23.248;2023-04-27T02:32:39;92302.72;;;4.90;55.93
53041;BME280;39326;42.650;23.248;2023-04-27T02:35:06;92306.00;;;4.83;56.76
53041;BME280;39326;42.650;23.248;2023-04-27T02:37:32;92305.59;;;4.81;56.57
53041;BME280;39326;42.650;23.248;2023-04-27T02:39:58;92307.63;;;4.91;56.68
53041;BME280;39326;42.650;23.248;2023-04-27T02:42:23;92302.81;;;4.97;56.13
53041;BME280;39326;42.650;23.248;2023-04-27T02:44:49;92308.53;;;4.99;55.95
53041;BME280;39326;42.650;23.248;2023-04-27T02:47:15;92311.50;;;4.98;55.40
53041;BME280;39326;42.650;23.248;2023-04-27T02:49:41;92310.00;;;4.96;55.70
53041;BME280;39326;42.650;23.248;2023-04-27T02:52:07;92310.63;;;4.90;56.08
53041;BME280;39326;42.650;23.248;2023-04-27T02:54:33;92312.72;;;5.00;56.13
53041;BME280;39326;42.650;23.248;2023-04-27T02:56:58;92304.66;;;4.93;56.67
53041;BME280;39326;42.650;23.248;2023-04-27T02:59:24;92310.88;;;4.81;56.46
53041;BME280;39326;42.650;23.248;2023-04-27T03:01:49;92305.25;;;4.83;55.88
53041;BME280;39326;42.650;23.248;2023-04-27T03:04:15;92314.81;;;4.91;56.32
53041;BME280;39326;42.650;23.248;2023-04-27T03:06:42;92320.63;;;4.77;55.97
53041;BME280;39326;42.650;23.248;2023-04-27T03:09:08;92316.47;;;4.76;55.84
53041;BME280;39326;42.650;23.248;2023-04-27T03:11:37;92322.09;;;4.75;55.92
53041;BME280;39326;42.650;23.248;2023-04-27T03:14:03;92322.69;;;4.45;56.22
53041;BME280;39326;42.650;23.248;2023-04-27T03:16:32;92328.06;;;4.49;56.99
53041;BME280;39326;42.650;23.248;2023-04-27T03:18:58;92329.22;;;4.51;56.19
53041;BME280;39326;42.650;23.248;2023-04-27T03:21:23;92326.56;;;4.51;56.39
53041;BME280;39326;42.650;23.248;2023-04-27T03:23:48;92329.25;;;4.55;56.18
53041;BME280;39326;42.650;23.248;2023-04-27T03:26:14;92331.66;;;4.40;56.53
53041;BME280;39326;42.650;23.248;2023-04-27T03:28:40;92332.75;;;4.59;56.77
53041;BME280;39326;42.650;23.248;2023-04-27T03:31:07;92340.59;;;4.75;56.36
53041;BME280;39326;42.650;23.248;2023-04-27T03:33:34;92340.38;;;4.64;55.85
53041;BME280;39326;42.650;23.248;2023-04-27T03:36:00;92338.16;;;4.66;56.19
53041;BME280;39326;42.650;23.248;2023-04-27T03:38:26;92326.34;;;4.60;55.52
53041;BME280;39326;42.650;23.248;2023-04-27T03:40:52;92338.38;;;4.57;55.87
53041;BME280;39326;42.650;23.248;2023-04-27T03:43:19;92344.28;;;4.70;54.94
53041;BME280;39326;42.650;23.248;2023-04-27T03:45:45;92353.22;;;4.43;55.13
53041;BME280;39326;42.650;23.248;2023-04-27T03:48:10;92355.00;;;4.38;55.50
53041;BME280;39326;42.650;23.248;2023-04-27T03:50:36;92354.22;;;4.57;55.39
53041;BME280;39326;42.650;23.248;2023-04-27T03:53:01;92352.84;;;4.63;55.26
53041;BME280;39326;42.650;23.248;2023-04-27T03:55:27;92344.56;;;4.65;54.77
53041;BME280;39326;42.650;23.248;2023-04-27T03:57:52;92356.84;;;4.77;55.03
53041;BME280;39326;42.650;23.248;2023-04-27T04:00:18;92353.34;;;4.73;55.56
53041;BME280;39326;42.650;23.248;2023-04-27T04:02:44;92363.66;;;4.58;55.06
53041;BME280;39326;42.650;23.248;2023-04-27T04:05:10;92365.69;;;4.46;55.33
53041;BME280;39326;42.650;23.248;2023-04-27T04:07:36;92374.59;;;4.57;55.11
53041;BME280;39326;42.650;23.248;2023-04-27T04:10:02;92374.31;;;4.62;55.58
53041;BME280;39326;42.650;23.248;2023-04-27T04:12:29;92368.88;;;4.74;54.92
53041;BME280;39326;42.650;23.248;2023-04-27T04:14:54;92378.00;;;4.57;54.90
53041;BME280;39326;42.650;23.248;2023-04-27T04:17:20;92381.03;;;4.59;55.25
53041;BME280;39326;42.650;23.248;2023-04-27T04:19:46;92393.06;;;4.57;55.01
53041;BME280;39326;42.650;23.248;2023-04-27T04:22:11;92388.69;;;4.64;55.21
53041;BME280;39326;42.650;23.248;2023-04-27T04:24:36;92393.63;;;4.66;55.80
53041;BME280;39326;42.650;23.248;2023-04-27T04:27:04;92386.31;;;4.59;55.47
53041;BME280;39326;42.650;23.248;2023-04-27T04:29:29;92385.69;;;4.66;54.78
53041;BME280;39326;42.650;23.248;2023-04-27T04:31:55;92393.91;;;4.80;54.88
53041;BME280;39326;42.650;23.248;2023-04-27T04:34:20;92397.63;;;4.79;55.77
53041;BME280;39326;42.650;23.248;2023-04-27T04:36:47;92396.94;;;4.82;54.36
53041;BME280;39326;42.650;23.248;2023-04-27T04:39:16;92394.34;;;4.86;54.28
53041;BME280;39326;42.650;23.248;2023-04-27T04:41:41;92393.72;;;4.92;53.88
53041;BME280;39326;42.650;23.248;2023-04-27T04:44:07;92400.75;;;4.85;54.63
53041;BME280;39326;42.650;23.248;2023-04-27T04:46:32;92404.09;;;4.82;54.12
53041;BME280;39326;42.650;23.248;2023-04-27T04:48:57;92398.69;;;4.75;54.13
53041;BME280;39326;42.650;23.248;2023-04-27T04:51:23;92406.78;;;4.85;54.12
53041;BME280;39326;42.650;23.248;2023-04-27T04:53:48;92415.06;;;4.84;53.62
53041;BME280;39326;42.650;23.248;2023-04-27T04:56:14;92412.94;;;4.70;53.72
53041;BME280;39326;42.650;23.248;2023-04-27T04:58:41;92418.97;;;4.90;53.44
53041;BME280;39326;42.650;23.248;2023-04-27T05:01:06;92421.97;;;4.88;54.40
53041;BME280;39326;42.650;23.248;2023-04-27T05:03:33;92419.03;;;4.93;53.98
53041;BME280;39326;42.650;23.248;2023-04-27T05:05:58;92428.41;;;4.91;53.65
53041;BME280;39326;42.650;23.248;2023-04-27T05:08:24;92421.97;;;4.88;54.17
53041;BME280;39326;42.650;23.248;2023-04-27T05:10:50;92424.13;;;4.83;53.96
53041;BME280;39326;42.650;23.248;2023-04-27T05:13:16;92434.06;;;4.89;54.05
53041;BME280;39326;42.650;23.248;2023-04-27T05:15:42;92434.94;;;4.97;53.45
53041;BME280;39326;42.650;23.248;2023-04-27T05:18:07;92438.06;;;5.03;53.44
53041;BME280;39326;42.650;23.248;2023-04-27T05:20:37;92437.38;;;5.06;53.00
53041;BME280;39326;42.650;23.248;2023-04-27T05:23:02;92440.66;;;4.99;52.79
53041;BME280;39326;42.650;23.248;2023-04-27T05:25:31;92437.28;;;5.21;53.71
53041;BME280;39326;42.650;23.248;2023-04-27T05:27:57;92437.34;;;5.25;54.45
53041;BME280;39326;42.650;23.248;2023-04-27T05:30:23;92435.09;;;5.27;53.50
53041;BME280;39326;42.650;23.248;2023-04-27T05:32:49;92432.19;;;5.32;53.90
53041;BME280;39326;42.650;23.248;2023-04-27T05:35:14;92439.38;;;5.35;54.16
53041;BME280;39326;42.650;23.248;2023-04-27T05:37:40;92437.13;;;5.57;53.47
53041;BME280;39326;42.650;23.248;2023-04-27T05:40:06;92446.69;;;5.65;53.76
53041;BME280;39326;42.650;23.248;2023-04-27T05:42:34;92444.03;;;5.65;53.71
53041;BME280;39326;42.650;23.248;2023-04-27T05:45:00;92447.50;;;5.46;53.40
53041;BME280;39326;42.650;23.248;2023-04-27T05:47:25;92450.06;;;5.62;53.29
53041;BME280;39326;42.650;23.248;2023-04-27T05:49:51;92460.97;;;5.60;52.89
53041;BME280;39326;42.650;23.248;2023-04-27T05:52:17;92458.09;;;5.46;54.18
53041;BME280;39326;42.650;23.248;2023-04-27T05:54:47;92456.09;;;5.39;53.71
53041;BME280;39326;42.650;23.248;2023-04-27T05:57:13;92457.38;;;5.49;53.81
53041;BME280;39326;42.650;23.248;2023-04-27T05:59:39;92452.44;;;5.47;53.46
53041;BME280;39326;42.650;23.248;2023-04-27T06:02:05;92459.03;;;5.34;54.34
53041;BME280;39326;42.650;23.248;2023-04-27T06:04:31;92456.00;;;5.36;53.93
53041;BME280;39326;42.650;23.248;2023-04-27T06:06:57;92470.47;;;5.19;54.60
53041;BME280;39326;42.650;23.248;2023-04-27T06:09:23;92459.69;;;5.08;53.47
53041;BME280;39326;42.650;23.248;2023-04-27T06:11:48;92458.44;;;5.02;54.29
53041;BME280;39326;42.650;23.248;2023-04-27T06:14:14;92459.63;;;5.05;54.67
53041;BME280;39326;42.650;23.248;2023-04-27T06:16:40;92454.00;;;5.29;54.71
53041;BME280;39326;42.650;23.248;2023-04-27T06:19:05;92452.28;;;5.37;54.68
53041;BME280;39326;42.650;23.248;2023-04-27T06:21:34;92462.72;;;5.53;54.46
53041;BME280;39326;42.650;23.248;2023-04-27T06:24:00;92459.63;;;5.47;54.48
53041;BME280;39326;42.650;23.248;2023-04-27T06:26:26;92456.28;;;5.50;53.83
53041;BME280;39326;42.650;23.248;2023-04-27T06:28:51;92460.25;;;5.40;54.03
53041;BME280;39326;42.650;23.248;2023-04-27T06:31:17;92457.56;;;5.60;53.62
53041;BME280;39326;42.650;23.248;2023-04-27T06:33:42;92457.75;;;5.70;53.67
53041;BME280;39326;42.650;23.248;2023-04-27T06:36:08;92456.97;;;5.70;52.83
53041;BME280;39326;42.650;23.248;2023-04-27T06:38:33;92451.91;;;5.84;52.71
53041;BME280;39326;42.650;23.248;2023-04-27T06:40:59;92448.00;;;6.01;52.92
53041;BME280;39326;42.650;23.248;2023-04-27T06:43:24;92455.09;;;6.20;53.29
53041;BME280;39326;42.650;23.248;2023-04-27T06:45:50;92449.16;;;6.30;53.17
53041;BME280;39326;42.650;23.248;2023-04-27T06:48:15;92440.31;;;6.49;52.10
53041;BME280;39326;42.650;23.248;2023-04-27T06:50:41;92440.78;;;6.54;51.75
53041;BME280;39326;42.650;23.248;2023-04-27T06:53:07;92440.56;;;6.63;51.76
53041;BME280;39326;42.650;23.248;2023-04-27T06:55:33;92451.84;;;6.60;51.94
53041;BME280;39326;42.650;23.248;2023-04-27T06:57:58;92446.50;;;6.30;51.53
53041;BME280;39326;42.650;23.248;2023-04-27T07:00:24;92448.84;;;6.35;51.88
53041;BME280;39326;42.650;23.248;2023-04-27T07:02:49;92442.31;;;6.55;51.72
53041;BME280;39326;42.650;23.248;2023-04-27T07:05:15;92437.25;;;6.73;51.19
53041;BME280;39326;42.650;23.248;2023-04-27T07:07:41;92443.44;;;6.84;51.63
53041;BME280;39326;42.650;23.248;2023-04-27T07:10:07;92429.94;;;6.97;51.30
53041;BME280;39326;42.650;23.248;2023-04-27T07:12:33;92442.63;;;6.80;49.38
53041;BME280;39326;42.650;23.248;2023-04-27T07:14:58;92440.38;;;6.52;49.18
53041;BME280;39326;42.650;23.248;2023-04-27T07:17:24;92441.44;;;6.48;49.78
53041;BME280;39326;42.650;23.248;2023-04-27T07:19:49;92444.41;;;6.43;49.78
53041;BME280;39326;42.650;23.248;2023-04-27T07:22:15;92436.06;;;6.41;50.43
53041;BME280;39326;42.650;23.248;2023-04-27T07:24:40;92439.94;;;6.47;49.98
53041;BME280;39326;42.650;23.248;2023-04-27T07:27:06;92436.00;;;6.64;49.54
53041;BME280;39326;42.650;23.248;2023-04-27T07:29:32;92442.53;;;6.70;49.44
53041;BME280;39326;42.650;23.248;2023-04-27T07:31:58;92431.88;;;6.66;49.54
53041;BME280;39326;42.650;23.248;2023-04-27T07:34:23;92445.84;;;6.63;49.68
53041;BME280;39326;42.650;23.248;2023-04-27T07:36:49;92437.16;;;6.66;50.29
53041;BME280;39326;42.650;23.248;2023-04-27T07:39:14;92437.97;;;6.70;49.89
53041;BME280;39326;42.650;23.248;2023-04-27T07:41:39;92434.78;;;6.88;49.60
53041;BME280;39326;42.650;23.248;2023-04-27T07:44:05;92437.78;;;6.86;50.06
53041;BME280;39326;42.650;23.248;2023-04-27T07:46:30;92426.47;;;6.93;49.23
53041;BME280;39326;42.650;23.248;2023-04-27T07:48:56;92437.41;;;7.21;49.47
53041;BME280;39326;42.650;23.248;2023-04-27T07:51:24;92432.72;;;7.45;48.29
53041;BME280;39326;42.650;23.248;2023-04-27T07:53:49;92434.94;;;7.39;47.32
53041;BME280;39326;42.650;23.248;2023-04-27T07:56:15;92435.63;;;7.32;47.80
53041;BME280;39326;42.650;23.248;2023-04-27T07:58:41;92440.94;;;7.32;47.88
53041;BME280;39326;42.650;23.248;2023-04-27T08:01:07;92443.84;;;7.24;48.31
53041;BME280;39326;42.650;23.248;2023-04-27T08:03:33;92432.59;;;7.34;47.74
53041;BME280;39326;42.650;23.248;2023-04-27T08:05:58;92442.16;;;7.42;47.15
53041;BME280;39326;42.650;23.248;2023-04-27T08:08:24;92433.97;;;7.61;47.03
53041;BME280;39326;42.650;23.248;2023-04-27T08:10:49;92445.00;;;7.63;47.99
53041;BME280;39326;42.650;23.248;2023-04-27T08:13:15;92445.41;;;7.65;48.26
53041;BME280;39326;42.650;23.248;2023-04-27T08:15:40;92440.03;;;7.62;47.36
53041;BME280;39326;42.650;23.248;2023-04-27T08:18:06;92445.72;;;7.60;47.36
53041;BME280;39326;42.650;23.248;2023-04-27T08:20:31;92437.66;;;7.50;46.72
53041;BME280;39326;42.650;23.248;2023-04-27T08:22:57;92435.47;;;7.59;47.35
53041;BME280;39326;42.650;23.248;2023-04-27T08:25:22;92437.06;;;7.67;45.77
53041;BME280;39326;42.650;23.248;2023-04-27T08:27:47;92435.69;;;7.87;45.63
53041;BME280;39326;42.650;23.248;2023-04-27T08:30:13;92439.38;;;8.20;46.82
53041;BME280;39326;42.650;23.248;2023-04-27T08:32:38;92430.84;;;8.52;46.81
53041;BME280;39326;42.650;23.248;2023-04-27T08:35:05;92447.97;;;8.61;45.92
53041;BME280;39326;42.650;23.248;2023-04-27T08:37:30;92443.44;;;8.65;45.43
53041;BME280;39326;42.650;23.248;2023-04-27T08:39:56;92442.16;;;8.41;44.66
53041;BME280;39326;42.650;23.248;2023-04-27T08:42:22;92446.25;;;8.28;44.57
53041;BME280;39326;42.650;23.248;2023-04-27T08:44:47;92442.91;;;8.38;46.11
53041;BME280;39326;42.650;23.248;2023-04-27T08:47:12;92439.59;;;8.56;45.91
53041;BME280;39326;42.650;23.248;2023-04-27T08:49:38;92448.50;;;8.92;45.04
53041;BME280;39326;42.650;23.248;2023-04-27T08:52:13;92436.78;;;9.11;44.80
53041;BME280;39326;42.650;23.248;2023-04-27T08:54:38;92439.50;;;9.28;44.60
53041;BME280;39326;42.650;23.248;2023-04-27T08:57:09;92442.06;;;9.04;44.36
53041;BME280;39326;42.650;23.248;2023-04-27T08:59:34;92445.84;;;8.95;44.39
53041;BME280;39326;42.650;23.248;2023-04-27T09:02:00;92440.97;;;9.19;44.25
53041;BME280;39326;42.650;23.248;2023-04-27T09:04:35;92446.97;;;8.91;43.92
53041;BME280;39326;42.650;23.248;2023-04-27T09:07:12;92447.38;;;9.07;43.67
53041;BME280;39326;42.650;23.248;2023-04-27T09:09:37;92441.38;;;9.24;43.58
53041;BME280;39326;42.650;23.248;2023-04-27T09:12:19;92442.91;;;9.29;43.72
53041;BME280;39326;42.650;23.248;2023-04-27T09:14:58;92435.28;;;9.24;42.76
53041;BME280;39326;42.650;23.248;2023-04-27T09:17:27;92426.91;;;9.08;42.84
53041;BME280;39326;42.650;23.248;2023-04-27T09:20:07;92429.19;;;9.16;42.46
53041;BME280;39326;42.650;23.248;2023-04-27T09:22:48;92427.63;;;9.01;43.12
53041;BME280;39326;42.650;23.248;2023-04-27T09:25:28;92431.13;;;9.23;43.35
53041;BME280;39326;42.650;23.248;2023-04-27T09:27:55;92438.34;;;9.37;43.87
53041;BME280;39326;42.650;23.248;2023-04-27T09:30:22;92436.03;;;9.10;43.29
53041;BME280;39326;42.650;23.248;2023-04-27T09:32:52;92430.75;;;9.21;43.79
53041;BME280;39326;42.650;23.248;2023-04-27T09:35:26;92433.84;;;9.66;44.87
53041;BME280;39326;42.650;23.248;2023-04-27T09:37:54;92417.84;;;9.55;44.21
53041;BME280;39326;42.650;23.248;2023-04-27T09:40:21;92435.75;;;9.79;43.92
53041;BME280;39326;42.650;23.248;2023-04-27T09:42:55;92419.41;;;9.99;42.57
53041;BME280;39326;42.650;23.248;2023-04-27T09:45:24;92409.88;;;9.94;42.67
53041;BME280;39326;42.650;23.248;2023-04-27T09:47:50;92399.91;;;10.52;44.25
53041;BME280;39326;42.650;23.248;2023-04-27T09:50:16;92404.47;;;10.62;42.30
53041;BME280;39326;42.650;23.248;2023-04-27T09:52:41;92407.50;;;10.68;41.16
53041;BME280;39326;42.650;23.248;2023-04-27T09:55:09;92409.72;;;10.87;38.92
53041;BME280;39326;42.650;23.248;2023-04-27T09:57:38;92414.22;;;11.04;39.81
53041;BME280;39326;42.650;23.248;2023-04-27T10:03:08;92399.78;;;10.87;37.63
53041;BME280;39326;42.650;23.248;2023-04-27T10:05:47;92399.47;;;10.78;38.67
53041;BME280;39326;42.650;23.248;2023-04-27T10:08:16;92405.59;;;10.68;39.33
53041;BME280;39326;42.650;23.248;2023-04-27T10:10:48;92402.50;;;10.84;38.75
53041;BME280;39326;42.650;23.248;2023-04-27T10:13:22;92402.22;;;11.41;38.50
53041;BME280;39326;42.650;23.248;2023-04-27T10:15:48;92391.91;;;11.39;36.62
53041;BME280;39326;42.650;23.248;2023-04-27T10:18:24;92391.75;;;11.64;36.71
53041;BME280;39326;42.650;23.248;2023-04-27T10:20:52;92384.53;;;12.10;36.35
53041;BME280;39326;42.650;23.248;2023-04-27T10:23:25;92392.56;;;12.10;34.84
53041;BME280;39326;42.650;23.248;2023-04-27T10:25:52;92386.09;;;12.45;35.81
53041;BME280;39326;42.650;23.248;2023-04-27T10:28:18;92387.44;;;12.26;35.21
53041;BME280;39326;42.650;23.248;2023-04-27T10:30:46;92391.84;;;12.43;35.67
53041;BME280;39326;42.650;23.248;2023-04-27T10:33:18;92384.88;;;12.53;36.30
53041;BME280;39326;42.650;23.248;2023-04-27T10:35:54;92391.50;;;12.41;35.62
53041;BME280;39326;42.650;23.248;2023-04-27T10:38:25;92385.47;;;12.71;35.69
53041;BME280;39326;42.650;23.248;2023-04-27T10:40:59;92381.28;;;12.70;34.50
53041;BME280;39326;42.650;23.248;2023-04-27T10:43:32;92395.84;;;12.66;35.28
53041;BME280;39326;42.650;23.248;2023-04-27T10:46:14;92393.66;;;12.16;36.15
53041;BME280;39326;42.650;23.248;2023-04-27T10:48:41;92396.00;;;12.10;36.35
53041;BME280;39326;42.650;23.248;2023-04-27T10:51:08;92395.09;;;11.79;36.40
53041;BME280;39326;42.650;23.248;2023-04-27T10:53:37;92395.34;;;11.95;36.48
53041;BME280;39326;42.650;23.248;2023-04-27T10:56:03;92391.34;;;12.56;36.99
53041;BME280;39326;42.650;23.248;2023-04-27T10:58:32;92403.34;;;13.12;35.60
53041;BME280;39326;42.650;23.248;2023-04-27T11:00:57;92390.38;;;12.76;34.05
53041;BME280;39326;42.650;23.248;2023-04-27T11:03:23;92388.66;;;12.56;34.45
53041;BME280;39326;42.650;23.248;2023-04-27T11:05:59;92390.44;;;11.90;34.74
53041;BME280;39326;42.650;23.248;2023-04-27T11:08:25;92387.63;;;12.05;35.69
53041;BME280;39326;42.650;23.248;2023-04-27T11:10:51;92380.44;;;12.39;35.59
53041;BME280;39326;42.650;23.248;2023-04-27T11:13:21;92381.16;;;12.81;36.28
53041;BME280;39326;42.650;23.248;2023-04-27T11:15:48;92389.06;;;13.22;37.12
53041;BME280;39326;42.650;23.248;2023-04-27T11:18:18;92389.09;;;12.88;34.66
53041;BME280;39326;42.650;23.248;2023-04-27T11:20:47;92387.75;;;12.73;33.80
53041;BME280;39326;42.650;23.248;2023-04-27T11:23:30;92385.25;;;12.51;33.84
53041;BME280;39326;42.650;23.248;2023-04-27T11:26:13;92387.88;;;12.59;36.23
53041;BME280;39326;42.650;23.248;2023-04-27T11:28:41;92392.53;;;12.51;34.90
53041;BME280;39326;42.650;23.248;2023-04-27T11:31:07;92386.28;;;12.65;34.76
53041;BME280;39326;42.650;23.248;2023-04-27T11:33:32;92387.75;;;12.73;34.66
53041;BME280;39326;42.650;23.248;2023-04-27T11:35:58;92391.88;;;12.77;34.74
53041;BME280;39326;42.650;23.248;2023-04-27T11:38:25;92396.22;;;12.27;34.41
53041;BME280;39326;42.650;23.248;2023-04-27T11:41:00;92398.38;;;12.39;35.23
53041;BME280;39326;42.650;23.248;2023-04-27T11:43:26;92396.13;;;12.34;36.37
53041;BME280;39326;42.650;23.248;2023-04-27T11:45:52;92396.69;;;12.56;36.00
53041;BME280;39326;42.650;23.248;2023-04-27T11:48:22;92396.63;;;12.63;35.31
53041;BME280;39326;42.650;23.248;2023-04-27T11:50:48;92393.72;;;12.46;35.34
53041;BME280;39326;42.650;23.248;2023-04-27T11:53:14;92394.94;;;12.80;35.58
53041;BME280;39326;42.650;23.248;2023-04-27T11:55:40;92405.84;;;13.26;35.09
53041;BME280;39326;42.650;23.248;2023-04-27T11:58:12;92400.31;;;12.76;33.68
53041;BME280;39326;42.650;23.248;2023-04-27T12:00:39;92409.50;;;12.75;34.80
53041;BME280;39326;42.650;23.248;2023-04-27T12:03:05;92400.94;;;12.91;35.39
53041;BME280;39326;42.650;23.248;2023-04-27T12:05:30;92401.88;;;13.08;36.10
53041;BME280;39326;42.650;23.248;2023-04-27T12:07:56;92412.22;;;13.06;35.31
53041;BME280;39326;42.650;23.248;2023-04-27T12:10:23;92400.56;;;12.51;34.18
53041;BME280;39326;42.650;23.248;2023-04-27T12:12:48;92413.19;;;12.50;35.46
53041;BME280;39326;42.650;23.248;2023-04-27T12:15:14;92407.66;;;12.31;35.75
53041;BME280;39326;42.650;23.248;2023-04-27T12:17:39;92404.38;;;12.12;35.29
53041;BME280;39326;42.650;23.248;2023-04-27T12:20:06;92416.56;;;12.17;35.56
53041;BME280;39326;42.650;23.248;2023-04-27T12:22:32;92401.34;;;12.10;35.82
53041;BME280;39326;42.650;23.248;2023-04-27T12:24:57;92408.72;;;12.37;35.82
53041;BME280;39326;42.650;23.248;2023-04-27T12:27:23;92405.88;;;12.17;36.64
53041;BME280;39326;42.650;23.248;2023-04-27T12:29:48;92416.78;;;12.33;36.18
53041;BME280;39326;42.650;23.248;2023-04-27T12:32:14;92412.75;;;12.14;35.11
53041;BME280;39326;42.650;23.248;2023-04-27T12:34:39;92414.59;;;12.21;36.12
53041;BME280;39326;42.650;23.248;2023-04-27T12:37:07;92415.16;;;12.43;36.77
53041;BME280;39326;42.650;23.248;2023-04-27T12:39:33;92417.38;;;12.51;36.08
53041;BME280;39326;42.650;23.248;2023-04-27T12:41:58;92418.13;;;12.52;35.58
53041;BME280;39326;42.650;23.248;2023-04-27T12:44:24;92411.16;;;12.24;34.60
53041;BME280;39326;42.650;23.248;2023-04-27T12:46:50;92411.44;;;12.33;35.08
53041;BME280;39326;42.650;23.248;2023-04-27T12:49:16;92420.47;;;12.46;35.62
53041;BME280;39326;42.650;23.248;2023-04-27T12:51:42;92417.63;;;12.68;36.83
53041;BME280;39326;42.650;23.248;2023-04-27T12:54:09;92426.66;;;11.95;35.88
53041;BME280;39326;42.650;23.248;2023-04-27T12:56:36;92415.81;;;11.64;35.95
53041;BME280;39326;42.650;23.248;2023-04-27T12:59:02;92421.13;;;11.64;35.96